Time;durP1;ratioP1;P1;durP2;ratioP2;P2;SDS_P1;SDS_P2;PMS_P1;PMS_P2;Temp;Humidity;BMP_temperature;BMP_pressure;BME280_temperature;BME280_humidity;BME280_pressure;Samples;Min_cycle;Max_cycle;Signal;HPM_P1;HPM_P2
2021/11/15 00:01:51;;;;;;;78.40;43.00;;;;;;;5.30;76.45;100075.84;2107503;84;21031;-79
2021/11/15 00:04:51;;;;;;;80.57;46.40;;;;;;;5.27;76.60;100080.86;2107831;84;21003;-80
2021/11/15 00:07:52;;;;;;;92.87;52.03;;;;;;;5.26;76.82;100085.55;2107396;84;20960;-80
2021/11/15 00:10:52;;;;;;;94.40;49.07;;;;;;;5.28;76.77;100089.11;2107679;84;21031;-80
2021/11/15 00:13:52;;;;;;;86.33;44.90;;;;;;;5.30;76.94;100091.37;2107340;84;20979;-79
2021/11/15 00:16:53;;;;;;;78.77;42.83;;;;;;;5.33;76.97;100089.35;2106849;84;21035;-79
2021/11/15 00:19:54;;;;;;;88.60;44.80;;;;;;;5.31;77.11;100094.45;2107226;84;20987;-79
2021/11/15 00:22:54;;;;;;;81.23;43.10;;;;;;;5.26;77.16;100097.61;2107727;84;21027;-81
2021/11/15 00:25:55;;;;;;;86.77;45.40;;;;;;;5.27;77.35;100098.98;2107695;84;20928;-82
2021/11/15 00:28:56;;;;;;;85.30;43.17;;;;;;;5.30;77.42;100096.95;2107670;84;20940;-80
2021/11/15 00:31:57;;;;;;;90.57;44.20;;;;;;;5.32;77.50;100112.17;2122412;83;21473;-79
2021/11/15 00:34:57;;;;;;;91.47;45.30;;;;;;;5.33;77.50;100116.13;2137149;83;20980;-79
2021/11/15 00:37:58;;;;;;;85.17;43.87;;;;;;;5.33;77.55;100107.07;2137115;83;20928;-80
2021/11/15 00:40:58;;;;;;;84.93;44.03;;;;;;;5.35;77.63;100109.34;2137059;83;21399;-79
2021/11/15 00:43:59;;;;;;;84.17;43.17;;;;;;;5.37;77.79;100123.25;2137105;83;21392;-79
2021/11/15 00:46:59;;;;;;;82.43;44.17;;;;;;;5.42;77.64;100111.84;2136864;83;20965;-79
2021/11/15 00:50:00;;;;;;;94.53;47.37;;;;;;;5.42;77.60;100117.02;2136874;83;20972;-79
2021/11/15 00:53:00;;;;;;;92.53;45.70;;;;;;;5.39;77.64;100121.63;2137037;83;20982;-80
2021/11/15 00:56:00;;;;;;;90.17;46.67;;;;;;;5.40;77.67;100118.23;2136955;83;20976;-79
2021/11/15 00:59:01;;;;;;;95.80;47.50;;;;;;;5.39;77.81;100124.22;2137020;83;20984;-79
2021/11/15 01:02:02;;;;;;;88.10;45.67;;;;;;;5.37;77.85;100122.36;2136968;83;21008;-79
2021/11/15 01:05:02;;;;;;;98.87;51.07;;;;;;;5.39;77.93;100118.16;2136972;83;21368;-80
2021/11/15 01:08:03;;;;;;;97.70;50.63;;;;;;;5.38;77.90;100118.56;2137550;83;21312;-80
2021/11/15 01:11:03;;;;;;;91.90;48.03;;;;;;;5.42;78.00;100116.62;2137222;83;21369;-79
2021/11/15 01:14:04;;;;;;;95.17;48.33;;;;;;;5.38;77.87;100121.15;2136996;83;20925;-80
2021/11/15 01:17:04;;;;;;;99.23;49.60;;;;;;;5.37;77.98;100115.89;2137067;83;21388;-80
2021/11/15 01:20:05;;;;;;;92.37;47.77;;;;;;;5.36;78.03;100120.58;2136937;83;21394;-79
2021/11/15 01:23:05;;;;;;;94.70;48.43;;;;;;;5.34;78.25;100122.20;2137133;83;21035;-79
2021/11/15 01:29:10;;;;;;;91.40;45.90;;;;;;;5.30;78.32;100122.84;2116360;83;20972;-79
2021/11/15 01:32:10;;;;;;;91.80;49.40;;;;;;;5.30;78.44;100122.84;2132669;83;21565;-80
2021/11/15 01:35:11;;;;;;;103.13;50.03;;;;;;;5.32;78.53;100122.53;2129329;84;20973;-83
2021/11/15 01:38:11;;;;;;;93.87;50.07;;;;;;;5.34;78.52;100135.15;2128909;83;21015;-80
2021/11/15 01:41:12;;;;;;;101.97;48.90;;;;;;;5.33;78.47;100127.78;2128985;84;21345;-80
2021/11/15 01:44:12;;;;;;;90.20;48.53;;;;;;;5.34;78.54;100128.27;2129124;83;21360;-80
2021/11/15 01:47:13;;;;;;;99.80;48.73;;;;;;;5.38;78.57;100134.50;2129104;83;20941;-81
2021/11/15 01:50:16;;;;;;;93.07;47.87;;;;;;;5.38;78.62;100140.97;2129034;83;20960;-80
2021/11/15 01:53:16;;;;;;;97.80;49.73;;;;;;;5.42;78.57;100142.91;2129081;83;20973;-80
2021/11/15 01:56:16;;;;;;;94.70;48.93;;;;;;;5.42;78.47;100135.14;2129475;83;20987;-80
2021/11/15 01:59:17;;;;;;;98.00;48.70;;;;;;;5.37;78.34;100141.78;2128973;83;20975;-80
2021/11/15 02:02:18;;;;;;;98.37;49.10;;;;;;;5.32;78.58;100140.25;2128622;83;21071;-79
2021/11/15 02:05:19;;;;;;;94.03;47.70;;;;;;;5.31;78.67;100140.16;2128852;83;21036;-79
2021/11/15 02:08:20;;;;;;;98.27;49.73;;;;;;;5.28;78.63;100134.42;2128671;84;20985;-80
2021/11/15 02:11:20;;;;;;;92.80;49.40;;;;;;;5.26;78.81;100137.73;2129137;84;21400;-80
2021/11/15 02:14:21;;;;;;;93.77;46.87;;;;;;;5.25;78.95;100138.14;2129266;84;21337;-79
2021/11/15 02:17:21;;;;;;;98.27;48.73;;;;;;;5.28;79.02;100141.30;2129265;84;21343;-80
2021/11/15 02:20:22;;;;;;;93.63;50.60;;;;;;;5.27;78.92;100147.28;2129775;83;21289;-80
2021/11/15 02:23:22;;;;;;;91.03;47.77;;;;;;;5.26;78.98;100137.73;2129202;84;20979;-79
2021/11/15 02:26:23;;;;;;;98.07;48.83;;;;;;;5.29;78.98;100141.78;2129234;83;20949;-79
2021/11/15 02:29:23;;;;;;;93.10;49.40;;;;;;;5.29;78.88;100137.90;2128618;84;21020;-81
2021/11/15 02:32:26;;;;;;;96.63;49.23;;;;;;;5.31;79.01;100141.45;2132613;83;21036;-80
2021/11/15 02:35:26;;;;;;;90.67;47.73;;;;;;;5.31;78.97;100140.16;2136477;83;21011;-80
2021/11/15 02:38:27;;;;;;;95.27;47.73;;;;;;;5.31;78.88;100137.17;2137044;83;20928;-80
2021/11/15 02:41:27;;;;;;;93.43;49.20;;;;;;;5.31;78.91;100139.76;2137132;83;20960;-80
2021/11/15 02:44:28;;;;;;;93.93;49.40;;;;;;;5.33;79.03;100138.55;2137227;83;21348;-82
2021/11/15 02:47:28;;;;;;;94.30;48.10;;;;;;;5.36;79.08;100138.70;2137036;83;21367;-80
2021/11/15 02:50:29;;;;;;;85.23;46.20;;;;;;;5.36;79.00;100139.59;2137276;83;21020;-81
2021/11/15 02:53:29;;;;;;;93.00;48.10;;;;;;;5.38;79.11;100139.68;2137068;83;21048;-79
2021/11/15 02:56:30;;;;;;;89.93;47.40;;;;;;;5.38;79.10;100142.27;2136231;83;21023;-79
2021/11/15 02:59:30;;;;;;;86.33;48.60;;;;;;;5.38;79.07;100143.16;2136613;83;21375;-80
2021/11/15 03:02:31;;;;;;;87.00;46.23;;;;;;;5.39;78.99;100140.16;2136728;83;21466;-78
2021/11/15 03:05:31;;;;;;;89.63;48.17;;;;;;;5.40;78.90;100149.71;2137014;83;20992;-79
2021/11/15 03:08:32;;;;;;;92.70;48.10;;;;;;;5.40;78.83;100142.83;2136945;83;20971;-79
2021/11/15 03:11:32;;;;;;;93.30;49.23;;;;;;;5.41;78.76;100148.91;2136677;83;21032;-81
2021/11/15 03:14:33;;;;;;;90.90;51.43;;;;;;;5.39;78.97;100142.34;2136730;83;20956;-81
2021/11/15 03:17:38;;;;;;;100.40;51.97;;;;;;;5.40;78.89;100143.23;2136957;83;20988;-81
2021/11/15 03:20:36;;;;;;;88.17;47.60;;;;;;;5.38;78.87;100140.56;2136835;82;21344;-82
2021/11/15 03:23:36;;;;;;;87.57;47.97;;;;;;;5.39;79.17;100140.16;2137210;83;20960;-82
2021/11/15 03:26:37;;;;;;;88.90;48.60;;;;;;;5.40;79.10;100142.83;2137102;83;21007;-79
2021/11/15 03:29:37;;;;;;;85.50;45.80;;;;;;;5.40;79.23;100141.95;2137249;83;21347;-81
2021/11/15 03:32:38;;;;;;;79.40;45.47;;;;;;;5.41;79.13;100145.91;2122906;83;21075;-80
2021/11/15 03:35:39;;;;;;;88.73;48.00;;;;;;;5.42;79.03;100142.91;2107879;84;20940;-82
2021/11/15 03:38:40;;;;;;;81.10;46.53;;;;;;;5.52;80.55;100154.64;2108209;85;21048;-81
2021/11/15 03:41:42;;;;;;;84.60;46.87;;;;;;;5.62;79.14;100147.84;2107087;84;21358;-82
2021/11/15 03:44:45;;;;;;;86.60;46.67;;;;;;;5.60;78.83;100143.88;2107271;84;21021;-82
2021/11/15 03:47:46;;;;;;;93.50;51.07;;;;;;;5.60;78.69;100150.76;2107423;84;20972;-84
2021/11/15 03:50:46;;;;;;;94.97;50.73;;;;;;;7.07;94.27;100144.30;2106826;84;21351;-83
2021/11/15 03:53:47;;;;;;;84.33;48.60;;;;;;;10.72;94.04;100138.41;2107051;84;21419;-82
2021/11/15 03:56:47;;;;;;;86.50;47.40;;;;;;;13.20;83.68;100134.30;2107747;84;21023;-83
2021/11/15 03:59:48;;;;;;;76.07;44.97;;;;;;;14.62;76.28;100128.31;2107703;84;20975;-83
2021/11/15 04:02:50;;;;;;;76.80;46.63;;;;;;;15.79;71.94;100129.12;2107658;85;21050;-84
2021/11/15 04:05:56;;;;;;;78.45;45.08;;;;;;;16.63;67.14;100127.75;2107682;84;20959;-83
2021/11/15 04:08:54;;;;;;;72.75;45.23;;;;;;;17.25;64.06;100123.34;2107148;85;21052;-83
2021/11/15 04:11:55;;;;;;;67.37;42.17;;;;;;;17.76;62.33;100118.34;2107487;84;21067;-81
2021/11/15 04:14:55;;;;;;;66.40;41.88;;;;;;;17.22;55.29;100119.38;2107141;84;21326;-81
2021/11/15 04:17:56;;;;;;;69.80;43.60;;;;;;;14.49;53.87;100128.09;2107772;84;21037;-82
2021/11/15 04:20:56;;;;;;;69.30;43.85;;;;;;;12.26;55.53;100131.15;2107546;84;20932;-82
2021/11/15 04:23:57;;;;;;;72.72;44.40;;;;;;;10.69;57.92;100128.28;2107544;84;20981;-82
2021/11/15 04:26:57;;;;;;;72.15;43.85;;;;;;;9.60;60.01;100133.20;2107668;84;20979;-81
2021/11/15 04:29:58;;;;;;;72.40;45.70;;;;;;;8.77;61.84;100138.27;2107640;84;20987;-82
2021/11/15 04:32:58;;;;;;;79.17;45.13;;;;;;;8.15;63.50;100135.24;2121283;83;21416;-81
2021/11/15 04:35:59;;;;;;;75.03;45.30;;;;;;;7.68;64.88;100136.26;2136028;83;21372;-80
2021/11/15 04:38:59;;;;;;;79.80;46.63;;;;;;;7.32;66.13;100141.13;2136556;83;21419;-81
2021/11/15 04:42:00;;;;;;;76.77;46.67;;;;;;;7.01;67.15;100147.50;2136655;83;20984;-80
2021/11/15 04:45:01;;;;;;;86.80;52.70;;;;;;;6.74;68.06;100147.47;2136244;83;20964;-81
2021/11/15 04:48:01;;;;;;;81.07;47.13;;;;;;;6.57;69.02;100149.67;2136289;83;21375;-82
2021/11/15 04:51:02;;;;;;;81.40;47.67;;;;;;;6.38;69.58;100148.78;2136759;83;21040;-81
2021/11/15 04:54:02;;;;;;;84.53;48.30;;;;;;;6.24;70.27;100157.58;2136626;83;20988;-82
2021/11/15 04:57:03;;;;;;;76.63;47.33;;;;;;;6.13;70.93;100161.75;2136662;83;21012;-81
2021/11/15 05:00:04;;;;;;;86.20;46.57;;;;;;;5.97;71.48;100160.94;2136547;83;20948;-81
2021/11/15 05:03:05;;;;;;;82.53;45.47;;;;;;;5.90;72.02;100165.73;2136785;83;21015;-81
2021/11/15 05:06:05;;;;;;;80.33;46.37;;;;;;;5.80;72.52;100159.16;2136773;83;21049;-81
2021/11/15 05:09:06;;;;;;;84.57;47.10;;;;;;;5.76;73.03;100164.58;2136428;83;21004;-81
2021/11/15 05:12:08;;;;;;;116.77;53.00;;;;;;;5.69;73.27;100162.48;2136771;83;21004;-83
2021/11/15 05:15:09;;;;;;;159.17;54.53;;;;;;;5.75;77.68;100166.69;2137042;83;21391;-83
2021/11/15 05:21:12;;;;;;;145.57;50.83;;;;;;;11.75;75.09;100152.83;2115840;83;21395;-83
2021/11/15 05:24:12;;;;;;;146.33;49.20;;;;;;;13.76;69.77;100148.59;2136023;83;20984;-83
2021/11/15 05:27:13;;;;;;;108.20;49.10;;;;;;;14.97;61.59;100149.03;2135784;83;20945;-83
2021/11/15 05:30:13;;;;;;;89.95;47.67;;;;;;;15.79;61.53;100150.19;2135986;83;21012;-84
2021/11/15 05:33:14;;;;;;;120.57;41.63;;;;;;;16.33;59.28;100155.58;2135670;83;21012;-82
2021/11/15 05:36:14;;;;;;;81.20;47.55;;;;;;;16.93;57.73;100159.65;2135912;83;21368;-82
2021/11/15 05:39:15;;;;;;;93.42;44.90;;;;;;;17.15;55.16;100160.67;2135856;83;20960;-84
2021/11/15 05:42:15;;;;;;;84.72;38.35;;;;;;;17.42;55.11;100154.26;2135233;83;21002;-83
2021/11/15 05:45:16;;;;;;;90.00;44.08;;;;;;;17.85;53.34;100162.83;2134846;83;20972;-82
2021/11/15 05:48:17;;;;;;;75.60;45.38;;;;;;;17.89;52.00;100165.48;2134518;83;20964;-83
2021/11/15 05:51:17;;;;;;;77.72;46.35;;;;;;;18.27;50.40;100166.94;2134953;83;21369;-83
2021/11/15 05:54:18;;;;;;;78.95;41.77;;;;;;;18.38;49.97;100162.55;2135629;83;21415;-81
2021/11/15 05:57:18;;;;;;;83.00;45.08;;;;;;;18.51;49.60;100171.81;2135710;83;21031;-83
2021/11/15 06:00:19;;;;;;;74.50;43.20;;;;;;;18.62;49.00;100167.44;2135459;83;20964;-82
2021/11/15 06:03:21;;;;;;;77.87;42.88;;;;;;;18.61;48.81;100169.61;2135370;83;21032;-83
2021/11/15 06:06:21;;;;;;;71.40;41.63;;;;;;;18.74;49.25;100170.09;2136060;83;21082;-82
2021/11/15 06:09:22;;;;;;;74.27;43.35;;;;;;;18.99;48.23;100170.50;2136833;83;21360;-82
2021/11/15 06:12:22;;;;;;;67.47;42.93;;;;;;;19.20;47.65;100176.69;2135936;83;20980;-82
2021/11/15 06:15:23;;;;;;;80.32;46.37;;;;;;;19.23;47.10;100174.03;2135666;83;21000;-82
2021/11/15 06:18:24;;;;;;;71.00;41.75;;;;;;;19.16;45.78;100176.25;2135158;83;20972;-81
2021/11/15 06:21:24;;;;;;;66.92;42.00;;;;;;;18.46;43.16;100182.38;2135184;83;21011;-79
2021/11/15 06:24:25;;;;;;;78.60;45.48;;;;;;;15.50;44.24;100190.98;2135074;83;20968;-80
2021/11/15 06:27:25;;;;;;;77.32;45.03;;;;;;;13.15;47.39;100201.45;2134781;83;20988;-81
2021/11/15 06:30:26;;;;;;;77.35;43.60;;;;;;;11.48;51.01;100202.20;2135124;83;21660;-79
2021/11/15 06:33:26;;;;;;;76.90;43.23;;;;;;;10.22;53.49;100211.09;2094748;84;21051;-80
2021/11/15 06:36:27;;;;;;;80.22;44.27;;;;;;;9.14;56.64;100223.95;2098353;85;20959;-79
2021/11/15 06:39:27;;;;;;;78.22;44.50;;;;;;;8.26;58.79;100217.22;2098992;85;20964;-79
2021/11/15 06:42:31;;;;;;;79.62;44.55;;;;;;;7.73;60.70;100222.64;2099166;85;21344;-79
2021/11/15 06:45:33;;;;;;;81.23;45.93;;;;;;;7.32;62.07;100221.64;2099332;85;20956;-78
2021/11/15 06:48:40;;;;;;;89.73;48.30;;;;;;;6.94;64.28;100227.63;2098712;85;21002;-78
2021/11/15 06:51:36;;;;;;;87.97;46.17;;;;;;;6.74;65.36;100225.33;2097268;85;20960;-79
2021/11/15 06:54:36;;;;;;;81.60;43.63;;;;;;;6.55;65.65;100227.83;2098239;85;20964;-78
2021/11/15 06:57:38;;;;;;;86.03;42.97;;;;;;;6.42;66.57;100225.44;2098115;85;20995;-78
2021/11/15 07:00:39;;;;;;;90.67;44.70;;;;;;;6.24;67.44;100227.59;2098575;85;21012;-79
2021/11/15 07:03:39;;;;;;;82.77;45.03;;;;;;;6.14;68.12;100238.30;2099037;85;21039;-79
2021/11/15 07:06:39;;;;;;;92.17;47.73;;;;;;;6.13;68.43;100236.52;2099061;85;20960;-79
2021/11/15 07:09:40;;;;;;;93.50;48.37;;;;;;;6.13;69.00;100235.63;2098795;85;20924;-79
2021/11/15 07:12:41;;;;;;;86.30;46.50;;;;;;;6.08;69.18;100237.98;2098774;85;21447;-79
2021/11/15 07:15:41;;;;;;;103.07;49.50;;;;;;;5.97;69.77;100241.69;2099046;85;21369;-79
2021/11/15 07:18:42;;;;;;;106.87;49.33;;;;;;;5.92;70.48;100246.64;2099227;85;20952;-78
2021/11/15 07:21:42;;;;;;;114.80;51.17;;;;;;;5.87;70.61;100247.17;2098790;85;20983;-78
2021/11/15 07:24:43;;;;;;;89.27;46.47;;;;;;;5.88;70.67;100245.06;2098794;85;20960;-78
2021/11/15 07:27:43;;;;;;;95.63;48.50;;;;;;;5.89;70.98;100246.48;2098530;85;21007;-79
2021/11/15 07:30:45;;;;;;;96.13;49.07;;;;;;;5.86;71.61;100246.28;2098798;85;21003;-79
2021/11/15 07:33:46;;;;;;;103.53;50.03;;;;;;;5.83;72.29;100243.94;2101168;83;21066;-78
2021/11/15 07:36:47;;;;;;;106.03;49.83;;;;;;;5.75;72.24;100247.01;2105008;84;20983;-79
2021/11/15 07:39:47;;;;;;;95.63;48.63;;;;;;;5.72;72.69;100244.66;2105272;84;21007;-78
2021/11/15 07:42:48;;;;;;;238.97;139.80;;;;;;;5.72;73.05;100243.37;2106134;84;20955;-78
2021/11/15 07:45:49;;;;;;;107.00;51.63;;;;;;;5.73;73.05;100242.15;2104985;84;20967;-79
2021/11/15 07:48:49;;;;;;;94.70;48.83;;;;;;;5.72;73.20;100248.55;2106223;84;21375;-77
2021/11/15 07:51:50;;;;;;;97.07;48.67;;;;;;;5.64;73.31;100240.77;2106187;84;21407;-78
2021/11/15 07:54:50;;;;;;;107.27;51.40;;;;;;;5.69;73.53;100248.38;2106651;84;21023;-78
2021/11/15 07:57:51;;;;;;;105.17;51.73;;;;;;;5.67;73.73;100249.59;2106462;84;20944;-79
2021/11/15 08:00:52;;;;;;;104.27;50.83;;;;;;;5.71;74.01;100244.17;2105809;84;20951;-78
2021/11/15 08:03:52;;;;;;;108.67;55.00;;;;;;;5.71;74.19;100249.36;2106127;84;21014;-78
2021/11/15 08:06:53;;;;;;;105.03;53.20;;;;;;;5.70;74.38;100246.28;2105896;84;21358;-78
2021/11/15 08:09:53;;;;;;;104.87;50.57;;;;;;;5.68;74.72;100253.08;2106819;84;20967;-78
2021/11/15 08:12:54;;;;;;;105.87;50.50;;;;;;;5.62;74.69;100249.76;2106365;84;20995;-78
2021/11/15 08:15:54;;;;;;;101.30;51.10;;;;;;;5.60;75.10;100256.95;2105706;85;21003;-77
2021/11/15 08:18:55;;;;;;;96.77;48.67;;;;;;;5.60;75.22;100253.97;2105507;84;21343;-76
2021/11/15 08:21:55;;;;;;;110.37;52.47;;;;;;;5.60;75.77;100248.78;2105460;84;21003;-77
2021/11/15 08:24:59;;;;;;;112.13;56.80;;;;;;;5.59;75.53;100252.19;2105639;84;20947;-78
2021/11/15 08:27:59;;;;;;;111.10;55.33;;;;;;;5.61;75.67;100247.09;2106014;84;21345;-78
2021/11/15 08:31:00;;;;;;;120.77;55.80;;;;;;;5.64;75.65;100245.55;2105901;84;20978;-77
2021/11/15 08:34:00;;;;;;;115.50;56.83;;;;;;;5.59;75.96;100243.12;2105941;83;21014;-78
2021/11/15 08:37:01;;;;;;;104.43;50.13;;;;;;;5.62;75.83;100248.87;2106113;84;20951;-79
2021/11/15 08:40:01;;;;;;;108.23;52.07;;;;;;;5.62;76.35;100244.58;2106500;84;20967;-78
2021/11/15 08:43:02;;;;;;;102.73;50.07;;;;;;;5.56;75.95;100248.13;2106511;84;21002;-78
2021/11/15 08:46:02;;;;;;;101.63;49.70;;;;;;;5.58;76.16;100247.81;2106736;84;21023;-77
2021/11/15 08:49:03;;;;;;;101.57;47.63;;;;;;;5.56;76.16;100249.83;2105565;84;20978;-77
2021/11/15 08:52:04;;;;;;;105.47;50.83;;;;;;;5.57;77.02;100246.03;2105027;84;21350;-78
2021/11/15 08:55:04;;;;;;;112.93;52.10;;;;;;;5.49;77.17;100247.31;2105514;84;21342;-78
2021/11/15 08:58:08;;;;;;;107.60;51.07;;;;;;;5.49;76.92;100251.61;2106622;84;20978;-78
2021/11/15 09:01:08;;;;;;;100.37;48.70;;;;;;;5.47;77.29;100250.63;2106557;84;21350;-79
2021/11/15 09:04:09;;;;;;;105.33;49.87;;;;;;;5.42;77.21;100247.39;2105973;85;21023;-78
2021/11/15 09:07:09;;;;;;;105.83;49.17;;;;;;;5.40;77.59;100253.30;2105872;84;21336;-77
2021/11/15 09:10:10;;;;;;;107.83;50.57;;;;;;;5.43;77.44;100253.45;2106011;84;21351;-78
2021/11/15 09:13:10;;;;;;;101.47;49.77;;;;;;;5.48;77.38;100257.19;2106102;84;21003;-79
2021/11/15 09:16:11;;;;;;;112.80;52.80;;;;;;;5.51;77.55;100253.47;2104937;84;20967;-78
2021/11/15 09:19:11;;;;;;;106.73;52.37;;;;;;;5.52;77.94;100259.54;2105284;84;21031;-80
2021/11/15 09:22:12;;;;;;;108.77;53.07;;;;;;;5.56;77.40;100264.97;2105326;84;20963;-79
2021/11/15 09:25:12;;;;;;;112.43;55.07;;;;;;;5.60;77.91;100260.44;2105112;84;20993;-80
2021/11/15 09:28:13;;;;;;;112.27;51.90;;;;;;;5.59;77.80;100259.95;2105838;84;20971;-79
2021/11/15 09:31:13;;;;;;;108.97;51.97;;;;;;;5.64;77.76;100264.09;2105918;84;20994;-80
2021/11/15 09:34:14;;;;;;;145.67;72.43;;;;;;;5.65;77.92;100261.58;2106159;84;21011;-81
2021/11/15 09:37:14;;;;;;;134.20;68.33;;;;;;;5.95;86.80;100258.45;2105534;84;21044;-80
2021/11/15 09:40:15;;;;;;;257.77;154.93;;;;;;;8.76;85.89;100242.83;2105180;84;20971;-80
2021/11/15 09:43:17;;;;;;;154.20;84.30;;;;;;;9.37;74.35;100249.17;2105248;84;20951;-79
2021/11/15 09:46:17;;;;;;;215.70;123.83;;;;;;;9.12;74.05;100250.34;2105700;84;20951;-79
2021/11/15 09:49:18;;;;;;;121.53;64.50;;;;;;;10.16;74.47;100241.73;2106044;84;20964;-77
2021/11/15 09:52:18;;;;;;;139.17;82.40;;;;;;;11.58;72.57;100232.12;2105486;85;20987;-77
2021/11/15 09:55:19;;;;;;;128.60;69.70;;;;;;;12.98;69.21;100231.16;2105857;84;21014;-80
2021/11/15 09:58:19;;;;;;;149.40;79.42;;;;;;;13.82;65.39;100220.88;2106090;84;20963;-81
2021/11/15 10:01:20;;;;;;;173.95;82.70;;;;;;;14.83;62.10;100221.54;2105939;84;21415;-80
2021/11/15 10:04:21;;;;;;;140.73;78.47;;;;;;;15.42;57.84;100220.25;2106592;84;21002;-80
2021/11/15 10:07:22;;;;;;;106.20;61.30;;;;;;;15.87;58.35;100219.61;2106685;84;21014;-79
2021/11/15 10:10:22;;;;;;;91.53;51.23;;;;;;;15.86;55.45;100212.58;2105628;84;21003;-79
2021/11/15 10:13:23;;;;;;;94.42;49.60;;;;;;;13.59;53.07;100216.89;2106484;84;20986;-79
2021/11/15 10:16:24;;;;;;;82.67;45.90;;;;;;;11.69;56.27;100223.28;2106309;84;20998;-78
2021/11/15 10:19:25;;;;;;;87.50;48.13;;;;;;;10.60;58.79;100222.88;2105817;84;21397;-78
2021/11/15 10:22:25;;;;;;;84.77;48.08;;;;;;;9.82;60.75;100227.01;2106121;84;21018;-78
2021/11/15 10:25:26;;;;;;;94.05;49.35;;;;;;;9.32;62.53;100229.88;2105702;84;21754;-78
2021/11/15 10:28:26;;;;;;;91.10;50.63;;;;;;;8.93;63.77;100227.89;2105090;84;21010;-78
2021/11/15 10:31:29;;;;;;;96.17;53.28;;;;;;;8.69;65.20;100221.27;2105064;85;20972;-78
2021/11/15 10:34:29;;;;;;;102.57;52.50;;;;;;;8.48;65.87;100218.63;2118979;83;21459;-77
2021/11/15 10:37:30;;;;;;;100.13;51.00;;;;;;;8.44;66.71;100215.84;2135077;83;20975;-78
2021/11/15 10:40:31;;;;;;;114.47;52.93;;;;;;;8.37;66.37;100211.20;2135403;83;20972;-79
2021/11/15 10:43:31;;;;;;;98.63;52.27;;;;;;;8.13;67.18;100206.70;2134363;83;21470;-80
2021/11/15 10:46:32;;;;;;;99.13;52.10;;;;;;;7.97;67.87;100210.34;2134698;83;21080;-78
2021/11/15 10:49:34;;;;;;;94.73;51.47;;;;;;;7.85;68.65;100216.72;2135697;83;21340;-79
2021/11/15 10:52:36;;;;;;;97.17;51.80;;;;;;;7.78;68.89;100217.23;2136488;83;21004;-79
2021/11/15 10:55:37;;;;;;;93.67;48.77;;;;;;;7.76;69.50;100218.88;2136575;83;21011;-78
2021/11/15 10:58:38;;;;;;;94.20;49.30;;;;;;;7.68;69.90;100222.44;2135631;83;21027;-78
2021/11/15 11:01:39;;;;;;;97.00;47.93;;;;;;;7.63;69.83;100224.83;2135557;83;21345;-79
2021/11/15 11:04:40;;;;;;;107.03;52.63;;;;;;;7.57;70.22;100219.34;2134890;83;21007;-78
2021/11/15 11:07:40;;;;;;;98.57;50.57;;;;;;;7.55;70.54;100225.30;2135078;83;21334;-79
2021/11/15 11:10:43;;;;;;;99.23;47.53;;;;;;;7.61;70.56;100221.27;2135537;83;21016;-79
2021/11/15 11:13:44;;;;;;;99.73;50.47;;;;;;;7.67;70.83;100224.14;2136138;83;20976;-79
2021/11/15 11:16:47;;;;;;;93.03;49.77;;;;;;;7.62;70.93;100213.95;2136488;83;20948;-77
2021/11/15 11:19:57;;;;;;;90.43;46.47;;;;;;;7.60;70.86;100212.10;2136360;82;21447;-79
2021/11/15 11:23:05;;;;;;;92.20;45.47;;;;;;;7.61;71.27;100217.78;2134932;83;20976;-79
2021/11/15 11:25:55;;;;;;;91.23;43.27;;;;;;;7.64;71.34;100216.20;2134232;82;20968;-77
2021/11/15 11:28:58;;;;;;;82.50;43.10;;;;;;;7.67;71.14;100213.75;2136188;83;20976;-79
2021/11/15 11:31:59;;;;;;;84.80;42.90;;;;;;;7.70;70.98;100214.30;2135761;83;21063;-78
2021/11/15 11:34:59;;;;;;;84.37;43.17;;;;;;;7.76;71.10;100208.07;2130848;83;21420;-78
2021/11/15 11:38:00;;;;;;;117.43;57.40;;;;;;;7.75;71.34;100207.59;2127640;83;21640;-78
2021/11/15 11:41:00;;;;;;;91.07;45.37;;;;;;;7.70;70.98;100203.01;2126834;83;20976;-79
2021/11/15 11:44:02;;;;;;;88.57;46.20;;;;;;;7.64;71.27;100202.33;2127510;84;20984;-80
2021/11/15 11:47:03;;;;;;;85.87;44.77;;;;;;;7.59;71.32;100202.53;2128141;84;21305;-80
2021/11/15 11:50:04;;;;;;;74.77;39.90;;;;;;;7.70;71.60;100193.91;2128031;83;20976;-77
2021/11/15 11:53:04;;;;;;;88.97;47.20;;;;;;;7.77;71.27;100195.96;2126734;84;21395;-78
2021/11/15 11:56:05;;;;;;;84.30;45.00;;;;;;;7.79;71.10;100191.72;2127750;83;21767;-79
2021/11/15 11:59:05;;;;;;;82.23;44.10;;;;;;;7.84;71.02;100188.95;2127726;84;20957;-78
2021/11/15 12:02:08;;;;;;;83.80;45.77;;;;;;;7.89;71.16;100193.94;2127544;84;21025;-78
2021/11/15 12:05:08;;;;;;;83.87;42.33;;;;;;;8.02;71.05;100192.76;2126925;83;21059;-79
2021/11/15 12:08:09;;;;;;;199.20;50.77;;;;;;;8.18;70.85;100183.08;2127077;83;20961;-78
2021/11/15 12:11:10;;;;;;;84.33;42.30;;;;;;;8.31;70.31;100181.88;2128148;83;21079;-79
2021/11/15 12:14:10;;;;;;;114.77;45.83;;;;;;;8.34;70.24;100182.45;2128101;83;21008;-79
2021/11/15 12:17:12;;;;;;;74.50;41.30;;;;;;;8.35;70.23;100182.52;2128168;83;21360;-79
2021/11/15 12:20:12;;;;;;;90.20;42.83;;;;;;;8.40;70.20;100189.22;2128088;84;21036;-79
2021/11/15 12:23:13;;;;;;;77.80;42.33;;;;;;;8.38;70.01;100185.66;2127051;83;21415;-78
2021/11/15 12:26:13;;;;;;;82.80;44.50;;;;;;;8.34;69.67;100187.25;2126915;83;20984;-78
2021/11/15 12:29:14;;;;;;;78.83;42.90;;;;;;;8.26;69.97;100187.30;2126833;83;21004;-79
2021/11/15 12:32:15;;;;;;;75.07;41.80;;;;;;;8.23;70.24;100182.86;2126660;83;20996;-79
2021/11/15 12:35:15;;;;;;;87.63;44.97;;;;;;;8.27;70.23;100179.98;2126717;83;21028;-78
2021/11/15 12:38:16;;;;;;;74.77;42.67;;;;;;;8.28;70.15;100169.63;2127020;83;20980;-78
2021/11/15 12:41:16;;;;;;;82.27;41.43;;;;;;;8.38;70.09;100169.64;2127859;84;21344;-79
2021/11/15 12:44:17;;;;;;;81.47;43.23;;;;;;;8.52;69.76;100161.09;2128069;83;20961;-80
2021/11/15 12:47:17;;;;;;;76.93;44.67;;;;;;;8.52;69.43;100159.38;2127557;83;21007;-78
2021/11/15 12:50:18;;;;;;;79.30;44.07;;;;;;;8.42;69.64;100167.64;2126591;83;20968;-78
2021/11/15 12:53:18;;;;;;;75.30;41.20;;;;;;;8.33;69.92;100172.46;2126668;83;21000;-77
2021/11/15 12:56:19;;;;;;;72.50;40.37;;;;;;;8.29;70.31;100170.11;2126874;83;20999;-78
2021/11/15 12:59:19;;;;;;;74.43;41.93;;;;;;;8.29;70.39;100179.63;2126721;83;20972;-76
2021/11/15 13:02:20;;;;;;;75.93;41.77;;;;;;;8.20;70.58;100171.03;2126434;83;21404;-79
2021/11/15 13:05:20;;;;;;;74.67;39.70;;;;;;;8.13;70.49;100172.89;2127044;84;21392;-77
2021/11/15 13:08:21;;;;;;;80.20;39.47;;;;;;;8.14;70.85;100169.47;2127543;84;21016;-78
2021/11/15 13:11:22;;;;;;;68.77;40.30;;;;;;;8.17;71.09;100171.31;2127624;84;21009;-78
2021/11/15 13:14:22;;;;;;;73.73;39.63;;;;;;;8.13;70.70;100168.09;2128120;83;20961;-79
2021/11/15 13:17:23;;;;;;;72.47;39.03;;;;;;;8.07;70.97;100160.92;2127169;83;20948;-78
2021/11/15 13:20:23;;;;;;;81.87;39.93;;;;;;;8.05;71.13;100165.17;2126862;84;21312;-79
2021/11/15 13:23:26;;;;;;;77.13;40.57;;;;;;;7.98;71.11;100166.63;2127478;83;21407;-79
2021/11/15 13:26:26;;;;;;;80.43;41.33;;;;;;;7.94;71.47;100166.42;2128000;83;20986;-78
2021/11/15 13:29:27;;;;;;;77.40;38.73;;;;;;;7.90;71.61;100167.11;2128527;83;20988;-79
2021/11/15 13:32:27;;;;;;;218.00;50.10;;;;;;;7.85;71.77;100171.23;2128182;84;20996;-79
2021/11/15 13:35:28;;;;;;;75.00;39.10;;;;;;;7.79;71.89;100174.83;2127668;83;20997;-80
2021/11/15 13:38:28;;;;;;;85.47;40.00;;;;;;;7.70;71.99;100177.91;2128504;83;20957;-80
2021/11/15 13:41:29;;;;;;;70.50;37.67;;;;;;;7.58;72.27;100179.55;2127907;83;20941;-79
2021/11/15 13:44:30;;;;;;;142.07;43.70;;;;;;;7.47;72.71;100179.89;2127994;83;20971;-80
2021/11/15 13:47:30;;;;;;;89.60;46.67;;;;;;;7.42;72.84;100181.39;2127256;84;20968;-80
2021/11/15 13:50:31;;;;;;;78.67;39.50;;;;;;;7.43;73.24;100181.46;2126717;83;21399;-79
2021/11/15 13:53:32;;;;;;;78.60;39.97;;;;;;;7.43;73.17;100182.76;2127085;83;21395;-82